South Duxbury, Vermont
Current Conditions -  °F | °C
As of 2:17 PM on Tuesday 21 Oct 2014 (Local Time) from KMPV Reporting Station
Light Rain Light Rain  
Wind Chill: 45°   Ceiling: 300
Heat Index: 45°   Visibility: 3mi
Dew Point: 44°   Wind: 0mph
Humidity: 97%   Direction: NA
Pressure: 30.02"   Gusts: NA
Location:  44.2533°N, 72.7398°W
Report Text: KMPV 211817Z AUTO 00000KT 3SM -RA BR OVC003 07/07 A3002 RMK AO2 CIG 002V007 P0002 T00720067
Loading
Personal Weather Stations






























Interactive Weather Map
Tropical Storm Tracking
New forecast layout! Learn more

10-Day Weather Forecast

Advertisements
Track Severe Weather on mobile